Pine Valley, California
Current Conditions -  °F | °C
As of 2:53 PM on Friday 28 Nov 2014 (Local Time) from KRNM Reporting Station
Clear Clear  
Wind Chill: 81°   Ceiling: Unl
Heat Index: 81°   Visibility: 10mi
Dew Point: 20°   Wind: 7mph
Humidity: 10%   Direction: 290°WNW
Pressure: 29.93"   Gusts: NA
Location:  32.86°N, 116.5°W
Report Text: KRNM 282253Z 29006KT 10SM CLR 27/M07 A2993 RMK AO2 SLP124 T02721067
Loading
Personal Weather Stations






























Interactive Weather Map New forecast layout! Learn more

10-Day Weather Forecast

Advertisements
Track Severe Weather on mobile